International Virtual Aviation Organisation

Russian Federation and Kazakhstan MCD

 

Карточка аэропорта USSS

Внимание!
Информация на этой странице в стадии наполнения.
Если вы не увидели какой-то информации, или заметили неточность - пожалуйста сообщите нам!
Спасибо!
Команда RU-STAFF
Название аэропортаКольцово
Название аэропорта (англ.)Koltsovo
Превышение766 ft. (233.5 m.)
Координаты56°44.586', 60°48.186'
Высота перехода900m
Эшелон переходаQFE>=739mm:FL050; QFE 712mm-738mm:FL060; QFE<=712mm:FL70
Коды ответчика5520-5557
Зона ОрВДЕкатеринбург РПИ (USSV)
Данные METARUSSS 302200Z 19002MPS CAVOK M00/M03 Q1026 R26R/010060 NOSIG RMK QFE748/0998
Проноз погоды (TAF)USSS 301952Z 3021/3121 14003MPS 4000 BR SCT016 TEMPO 3021/3104 0300 FZFG FM310400 22003G12MPS 9999 BKN016 SCT020CB BECMG 3113/3115 6000 -SHSNRA
NOTAMshow/hide NOTAM
AWOS   TABLE

Информация о ВПП

ВПП Длина ВПП (м.) Покрытие Курс ВПП Частота ILS
08L3004Асфальтобетон75111.7
26R3004Асфальтобетон255110.5
08R3026Бетон79109.9
26L3026Бетон259109.5

Диспетчерские позиции

Позывной Наименование органа УВД Частота
USSS_APPКольцово-Подход125.9
USSS_R_APPКольцово-Круг118.7
USSS_TWRКольцово-Старт124.3
USSS_GNDКольцово-Руление119.0
USSSFM1Машина сопровождения119.000
USSV_FSS_CTRКольцово Транзит131.900



Спутниковое изображение